createdAt,value
2022-07-25T00:02:18.866Z,14.20
2022-07-25T00:04:48.759Z,14.20
2022-07-25T00:07:16.989Z,14.20
2022-07-25T00:09:46.908Z,14.20
2022-07-25T00:12:14.873Z,14.30
2022-07-25T00:14:43.244Z,14.30
2022-07-25T00:17:10.747Z,14.30
2022-07-25T00:19:41.015Z,14.30
2022-07-25T00:22:10.372Z,14.30
2022-07-25T00:24:40.702Z,14.40
2022-07-25T00:27:11.906Z,14.50
2022-07-25T00:29:40.276Z,14.40
2022-07-25T00:32:08.194Z,14.50
2022-07-25T00:34:36.583Z,14.40
2022-07-25T00:37:05.599Z,14.40
2022-07-25T00:39:35.822Z,14.20
2022-07-25T00:42:05.883Z,14.20
2022-07-25T00:44:34.558Z,14.20
2022-07-25T00:47:03.227Z,14.30
2022-07-25T00:49:31.145Z,14.30
2022-07-25T00:51:58.952Z,14.40
2022-07-25T00:54:26.771Z,14.40
2022-07-25T00:56:54.171Z,14.30
2022-07-25T00:59:21.485Z,14.30
2022-07-25T01:01:49.044Z,14.20
2022-07-25T01:04:16.890Z,14.30
2022-07-25T01:06:44.719Z,14.30
2022-07-25T01:09:12.491Z,14.30
2022-07-25T01:11:40.060Z,14.30
2022-07-25T01:14:07.646Z,14.30
2022-07-25T01:16:35.572Z,14.30
2022-07-25T01:19:03.045Z,14.20
2022-07-25T01:21:30.570Z,14.30
2022-07-25T01:23:57.869Z,14.30
2022-07-25T01:26:25.279Z,14.30
2022-07-25T01:28:53.000Z,14.30
2022-07-25T01:31:20.599Z,14.20
2022-07-25T01:33:47.938Z,14.20
2022-07-25T01:36:15.288Z,14.20
2022-07-25T01:38:42.604Z,14.10
2022-07-25T01:41:09.876Z,14.10
2022-07-25T01:43:37.841Z,14.10
2022-07-25T01:46:05.393Z,14.10
2022-07-25T01:48:33.016Z,14.00
2022-07-25T01:51:00.401Z,14.00
2022-07-25T01:53:27.742Z,13.90
2022-07-25T01:55:55.142Z,13.90
2022-07-25T01:58:24.818Z,13.90
2022-07-25T02:00:53.001Z,13.90
2022-07-25T02:03:32.590Z,14.00
2022-07-25T02:06:05.842Z,14.10
2022-07-25T02:08:33.431Z,14.20
2022-07-25T02:11:01.620Z,14.20
2022-07-25T02:13:29.083Z,14.30
2022-07-25T02:15:56.380Z,14.30
2022-07-25T02:18:23.780Z,14.50
2022-07-25T02:20:51.275Z,14.50
2022-07-25T02:23:18.636Z,14.50
2022-07-25T02:25:46.044Z,14.60
2022-07-25T02:28:13.929Z,14.70
2022-07-25T02:30:41.261Z,14.70
2022-07-25T02:33:08.573Z,14.80
2022-07-25T02:35:36.270Z,14.80
2022-07-25T02:38:03.683Z,14.90
2022-07-25T02:40:31.139Z,15.00
2022-07-25T02:42:58.611Z,15.00
2022-07-25T02:45:26.499Z,15.00
2022-07-25T02:47:53.993Z,15.00
2022-07-25T02:50:21.408Z,15.20
2022-07-25T02:52:48.658Z,15.20
2022-07-25T02:55:16.055Z,15.30
2022-07-25T02:57:43.670Z,15.30
2022-07-25T03:00:13.092Z,15.30
2022-07-25T03:02:40.814Z,15.30
2022-07-25T03:05:09.937Z,15.40
2022-07-25T03:07:37.797Z,15.40
2022-07-25T03:10:11.098Z,15.40
2022-07-25T03:12:40.169Z,15.40
2022-07-25T03:15:08.988Z,15.50
2022-07-25T03:17:36.849Z,15.50
2022-07-25T03:20:08.890Z,15.50
2022-07-25T03:22:36.952Z,15.50
2022-07-25T03:25:04.885Z,15.60
2022-07-25T03:27:32.591Z,15.60
2022-07-25T03:30:00.243Z,15.60
2022-07-25T03:32:27.834Z,15.60
2022-07-25T03:34:55.323Z,15.70
2022-07-25T03:37:22.763Z,15.80
2022-07-25T03:39:50.068Z,15.80
2022-07-25T03:42:17.471Z,15.80
2022-07-25T03:44:44.806Z,15.90
2022-07-25T03:47:20.571Z,16.10
2022-07-25T03:49:48.390Z,16.10
2022-07-25T03:52:15.861Z,16.30
2022-07-25T03:54:43.422Z,16.30
2022-07-25T03:57:11.931Z,16.40
2022-07-25T03:59:39.541Z,16.60
2022-07-25T04:02:06.896Z,16.70
2022-07-25T04:04:34.439Z,16.80
2022-07-25T04:07:01.979Z,16.90
2022-07-25T04:09:30.991Z,17.00
2022-07-25T04:12:01.084Z,17.40
2022-07-25T04:14:28.491Z,17.60
2022-07-25T04:16:55.801Z,17.90
2022-07-25T04:19:23.324Z,18.10
2022-07-25T04:21:53.561Z,18.10
2022-07-25T04:24:20.983Z,18.40
2022-07-25T04:26:48.448Z,18.30
2022-07-25T04:29:15.922Z,18.50
2022-07-25T04:31:50.863Z,18.70
2022-07-25T04:34:20.673Z,18.60
2022-07-25T04:36:48.203Z,18.60
2022-07-25T04:39:15.790Z,18.70
2022-07-25T04:41:43.756Z,18.60
2022-07-25T04:44:11.258Z,18.80
2022-07-25T04:46:38.661Z,19.20
2022-07-25T04:49:06.138Z,19.30
2022-07-25T04:51:33.533Z,19.00
2022-07-25T04:54:00.817Z,19.30
2022-07-25T04:56:28.179Z,19.60
2022-07-25T04:58:55.439Z,19.30
2022-07-25T05:01:23.158Z,19.70
2022-07-25T05:03:50.913Z,20.50
2022-07-25T05:06:19.809Z,20.90
2022-07-25T05:08:47.307Z,21.40
2022-07-25T05:11:14.858Z,21.00
2022-07-25T05:13:42.380Z,20.80
2022-07-25T05:16:10.081Z,20.40
2022-07-25T05:18:37.429Z,20.20
2022-07-25T05:21:04.855Z,19.90
2022-07-25T05:23:32.315Z,19.90
2022-07-25T05:25:59.800Z,20.00
2022-07-25T05:28:27.270Z,20.30
2022-07-25T05:30:54.651Z,20.50
2022-07-25T05:33:22.072Z,21.40
2022-07-25T05:35:49.365Z,22.20
2022-07-25T05:38:16.790Z,23.50
2022-07-25T05:40:46.118Z,23.70
2022-07-25T05:43:13.384Z,24.30
2022-07-25T05:45:40.617Z,24.70
2022-07-25T05:48:08.129Z,24.70
2022-07-25T05:50:37.360Z,24.40
2022-07-25T05:53:05.422Z,23.70
2022-07-25T05:55:33.415Z,23.00
2022-07-25T05:58:02.469Z,23.20
2022-07-25T06:00:31.808Z,23.50
2022-07-25T06:03:01.154Z,23.20
2022-07-25T06:05:28.840Z,23.40
2022-07-25T06:07:56.639Z,23.20
2022-07-25T06:10:24.991Z,22.40
2022-07-25T06:12:53.106Z,22.10
2022-07-25T06:15:26.565Z,21.50
2022-07-25T06:17:55.378Z,21.20
2022-07-25T06:20:23.948Z,20.90
2022-07-25T06:22:51.467Z,20.60
2022-07-25T06:25:19.369Z,20.40
2022-07-25T06:27:46.739Z,20.30
2022-07-25T06:30:20.118Z,20.20
2022-07-25T06:32:49.470Z,20.10
2022-07-25T06:35:17.559Z,20.20
2022-07-25T06:37:45.366Z,20.40
2022-07-25T06:40:12.990Z,20.30
2022-07-25T06:42:42.159Z,20.70
2022-07-25T06:45:11.288Z,21.00
2022-07-25T06:47:40.346Z,21.60
2022-07-25T06:50:11.247Z,22.20
2022-07-25T06:52:39.451Z,22.60
2022-07-25T06:55:08.522Z,22.50
2022-07-25T06:57:36.810Z,21.90
2022-07-25T07:00:10.852Z,22.00
2022-07-25T07:02:51.543Z,21.80
2022-07-25T07:05:19.285Z,22.10
2022-07-25T07:07:47.952Z,22.10
2022-07-25T07:10:16.554Z,22.20
2022-07-25T07:12:44.265Z,22.00
2022-07-25T07:15:12.721Z,21.80
2022-07-25T07:17:40.115Z,21.00
2022-07-25T07:20:09.123Z,21.30
2022-07-25T07:22:48.051Z,21.50
2022-07-25T07:25:16.932Z,21.60
2022-07-25T07:27:45.321Z,21.50
2022-07-25T07:30:15.119Z,21.80
2022-07-25T07:32:44.087Z,21.90
2022-07-25T07:35:16.585Z,21.90
2022-07-25T07:37:45.619Z,22.00
2022-07-25T07:40:17.073Z,22.50
2022-07-25T07:42:47.846Z,24.30
2022-07-25T07:45:16.213Z,25.30
2022-07-25T07:47:43.706Z,26.80
2022-07-25T07:50:11.602Z,27.70
2022-07-25T07:52:39.736Z,27.30
2022-07-25T07:55:26.451Z,28.20
2022-07-25T07:57:53.886Z,29.90
2022-07-25T08:00:22.139Z,31.80
2022-07-25T08:02:52.383Z,33.40
2022-07-25T08:05:29.537Z,34.70
2022-07-25T08:07:57.404Z,36.10
2022-07-25T08:10:27.800Z,38.00
2022-07-25T08:12:55.291Z,38.50
2022-07-25T08:16:04.887Z,37.00
2022-07-25T08:18:39.851Z,37.20
2022-07-25T08:21:18.878Z,33.80
2022-07-25T08:23:58.751Z,32.00
2022-07-25T08:26:28.530Z,30.90
2022-07-25T08:29:18.257Z,30.30
2022-07-25T08:31:53.395Z,28.20
2022-07-25T08:34:28.596Z,26.70
2022-07-25T08:37:04.482Z,26.60
2022-07-25T08:39:31.942Z,26.20
2022-07-25T08:42:00.219Z,25.20
2022-07-25T08:44:32.287Z,25.10
2022-07-25T08:47:00.726Z,25.50
2022-07-25T08:49:30.772Z,25.70
2022-07-25T08:51:58.361Z,26.50
2022-07-25T08:54:25.962Z,26.00
2022-07-25T08:56:53.387Z,26.20
2022-07-25T08:59:20.737Z,25.80
2022-07-25T09:01:48.182Z,26.10
2022-07-25T09:04:15.827Z,26.00
2022-07-25T09:06:53.152Z,26.10
2022-07-25T09:09:29.762Z,25.70
2022-07-25T09:11:57.265Z,25.60
2022-07-25T09:14:24.700Z,25.10
2022-07-25T09:16:52.272Z,25.10
2022-07-25T09:19:22.036Z,25.40
2022-07-25T09:22:00.407Z,25.70
2022-07-25T09:24:28.769Z,25.20
2022-07-25T09:26:59.878Z,25.40
2022-07-25T09:29:32.380Z,24.60
2022-07-25T09:32:00.970Z,24.80
2022-07-25T09:34:35.433Z,25.40
2022-07-25T09:37:08.107Z,25.20
2022-07-25T09:39:51.915Z,24.80
2022-07-25T09:42:21.463Z,24.50
2022-07-25T09:45:13.064Z,24.70
2022-07-25T09:47:55.727Z,24.90
2022-07-25T09:50:25.386Z,24.90
2022-07-25T10:01:48.505Z,25.30
2022-07-25T10:04:22.975Z,25.60
2022-07-25T10:07:04.545Z,25.20
2022-07-25T10:09:32.645Z,25.20
2022-07-25T10:12:08.664Z,24.80
2022-07-25T10:14:39.754Z,24.70
2022-07-25T10:17:07.909Z,24.70
2022-07-25T10:19:52.949Z,24.60
2022-07-25T10:22:46.573Z,25.40
2022-07-25T10:25:21.765Z,25.20
2022-07-25T10:27:53.008Z,25.10
2022-07-25T10:30:28.030Z,24.80
2022-07-25T10:33:05.281Z,24.30
2022-07-25T10:35:33.024Z,24.10
2022-07-25T10:38:03.530Z,24.40
2022-07-25T10:40:44.975Z,25.50
2022-07-25T10:43:13.362Z,26.50
2022-07-25T10:45:55.560Z,26.50
2022-07-25T10:48:28.914Z,26.20
2022-07-25T10:51:06.309Z,27.00
2022-07-25T10:53:47.475Z,27.80
2022-07-25T10:56:20.997Z,27.50
2022-07-25T10:58:51.170Z,27.00
2022-07-25T11:01:38.484Z,26.70
2022-07-25T11:04:15.497Z,26.30
2022-07-25T11:06:43.679Z,26.00
2022-07-25T11:09:19.245Z,25.30
2022-07-25T11:11:50.399Z,25.10
2022-07-25T11:14:22.660Z,25.50
2022-07-25T11:16:52.829Z,25.90
2022-07-25T11:19:28.219Z,26.00
2022-07-25T11:21:58.362Z,25.90
2022-07-25T11:24:37.024Z,25.90
2022-07-25T11:27:09.762Z,25.80
2022-07-25T11:29:40.580Z,25.30
2022-07-25T11:32:10.791Z,25.00
2022-07-25T11:34:41.682Z,25.10
2022-07-25T11:37:10.790Z,24.70
2022-07-25T11:39:40.292Z,24.30
2022-07-25T11:42:07.820Z,24.70
2022-07-25T11:44:48.005Z,25.10
2022-07-25T11:47:32.892Z,25.10
2022-07-25T11:50:04.589Z,24.90
2022-07-25T11:52:34.582Z,25.10
2022-07-25T11:55:05.320Z,24.60
2022-07-25T11:57:35.052Z,24.60
2022-07-25T12:00:22.404Z,24.50
2022-07-25T12:02:50.138Z,24.40
2022-07-25T12:05:20.410Z,24.50
2022-07-25T12:07:53.360Z,24.80
2022-07-25T12:10:39.683Z,24.10
2022-07-25T12:13:10.250Z,23.80
2022-07-25T12:15:39.938Z,23.60
2022-07-25T12:18:12.677Z,23.80
2022-07-25T12:20:43.115Z,23.70
2022-07-25T12:23:12.571Z,23.90
2022-07-25T12:25:42.684Z,23.70
2022-07-25T12:28:11.389Z,23.70
2022-07-25T12:30:40.292Z,23.60
2022-07-25T12:33:07.996Z,23.50
2022-07-25T12:35:46.140Z,23.50
2022-07-25T12:38:14.530Z,23.10
2022-07-25T12:40:41.680Z,23.30
2022-07-25T12:43:09.663Z,23.50
2022-07-25T12:45:36.965Z,23.30
2022-07-25T12:48:04.587Z,23.20
2022-07-25T12:50:32.051Z,23.30
2022-07-25T12:52:59.368Z,22.50
2022-07-25T12:55:27.159Z,21.90
2022-07-25T12:57:57.164Z,21.30
2022-07-25T13:00:25.506Z,21.20
2022-07-25T13:02:55.776Z,20.80
2022-07-25T13:05:24.599Z,20.90
2022-07-25T13:07:53.682Z,21.30
2022-07-25T13:10:21.052Z,21.60
2022-07-25T13:12:48.600Z,22.00
2022-07-25T13:15:21.101Z,21.90
2022-07-25T13:17:48.347Z,21.50
2022-07-25T13:20:15.874Z,21.60
2022-07-25T13:22:43.258Z,21.50
2022-07-25T13:25:10.453Z,21.30
2022-07-25T13:27:38.685Z,21.20
2022-07-25T13:30:07.433Z,21.10
2022-07-25T13:32:35.322Z,21.10
2022-07-25T13:35:02.922Z,20.90
2022-07-25T13:37:30.193Z,21.20
2022-07-25T13:39:57.787Z,21.10
2022-07-25T13:42:25.178Z,21.10
2022-07-25T13:44:52.403Z,21.10
2022-07-25T13:47:19.646Z,21.60
2022-07-25T13:49:46.890Z,21.80
2022-07-25T13:52:14.174Z,21.70
2022-07-25T13:54:41.420Z,21.70
2022-07-25T13:57:09.615Z,22.00
2022-07-25T13:59:37.043Z,22.30
2022-07-25T14:02:04.388Z,21.90
2022-07-25T14:04:31.654Z,21.80
2022-07-25T14:07:00.436Z,21.80
2022-07-25T14:09:27.911Z,21.70
2022-07-25T14:11:55.111Z,22.00
2022-07-25T14:14:22.450Z,22.20
2022-07-25T14:16:49.729Z,22.50
2022-07-25T14:19:17.612Z,22.80
2022-07-25T14:21:44.872Z,22.50
2022-07-25T14:24:12.211Z,22.70
2022-07-25T14:26:39.714Z,22.70
2022-07-25T14:29:11.354Z,22.60
2022-07-25T14:31:40.261Z,22.50
2022-07-25T14:34:07.709Z,22.40
2022-07-25T14:36:35.583Z,22.30
2022-07-25T14:39:04.787Z,22.30
2022-07-25T14:41:32.381Z,22.40
2022-07-25T14:43:59.935Z,22.40
2022-07-25T14:46:27.349Z,22.40
2022-07-25T14:48:54.647Z,22.30
2022-07-25T14:51:21.994Z,22.30
2022-07-25T14:53:53.152Z,22.20
2022-07-25T14:56:20.899Z,22.40
2022-07-25T14:58:48.211Z,22.30
2022-07-25T15:01:18.835Z,22.40
2022-07-25T15:03:46.348Z,22.10
2022-07-25T15:06:13.757Z,22.10
2022-07-25T15:08:41.222Z,22.10
2022-07-25T15:11:08.585Z,21.80
2022-07-25T15:13:35.885Z,21.80
2022-07-25T15:16:05.483Z,21.60
2022-07-25T15:18:46.856Z,21.60
2022-07-25T15:21:20.191Z,21.50
2022-07-25T15:23:47.329Z,21.40
2022-07-25T15:26:14.720Z,21.40
2022-07-25T15:28:41.973Z,21.50
2022-07-25T15:31:09.288Z,21.50
2022-07-25T15:33:36.660Z,21.60
2022-07-25T15:36:04.756Z,21.80
2022-07-25T15:38:33.240Z,21.80
2022-07-25T15:41:00.567Z,21.90
2022-07-25T15:43:27.965Z,22.10
2022-07-25T15:45:55.170Z,22.30
2022-07-25T15:48:23.975Z,22.20
2022-07-25T15:50:56.109Z,22.30
2022-07-25T15:53:23.947Z,22.40
2022-07-25T15:55:51.406Z,22.30
2022-07-25T15:58:18.786Z,22.30
2022-07-25T16:00:46.101Z,22.40
2022-07-25T16:03:13.996Z,22.40
2022-07-25T16:05:43.166Z,22.40
2022-07-25T16:08:11.186Z,22.30
2022-07-25T16:10:39.051Z,22.20
2022-07-25T16:13:06.454Z,22.30
2022-07-25T16:15:33.926Z,22.30
2022-07-25T16:18:02.947Z,22.20
2022-07-25T16:20:32.283Z,22.00
2022-07-25T16:23:00.538Z,22.10
2022-07-25T16:25:29.402Z,22.10
2022-07-25T16:27:57.552Z,22.00
2022-07-25T16:30:25.374Z,21.70
2022-07-25T16:32:52.668Z,21.80
2022-07-25T16:35:20.161Z,21.80
2022-07-25T16:37:47.389Z,21.80
2022-07-25T16:40:14.707Z,21.80
2022-07-25T16:42:43.229Z,21.80
2022-07-25T16:45:11.159Z,21.70
2022-07-25T16:47:40.278Z,21.70
2022-07-25T16:50:07.879Z,21.60
2022-07-25T16:52:35.354Z,21.50
2022-07-25T16:55:02.700Z,21.30
2022-07-25T16:57:31.125Z,21.20
2022-07-25T16:59:58.440Z,21.30
2022-07-25T17:02:29.468Z,21.10
2022-07-25T17:05:00.720Z,21.20
2022-07-25T17:07:28.100Z,21.20
2022-07-25T17:09:55.326Z,21.40
2022-07-25T17:12:22.867Z,21.50
2022-07-25T17:14:50.267Z,21.60
2022-07-25T17:17:17.407Z,21.50
2022-07-25T17:19:44.642Z,21.60
2022-07-25T17:22:14.465Z,21.50
2022-07-25T17:24:42.231Z,21.40
2022-07-25T17:27:10.051Z,21.40
2022-07-25T17:29:37.766Z,21.30
2022-07-25T17:32:07.035Z,21.10
2022-07-25T17:34:35.560Z,21.10
2022-07-25T17:37:03.153Z,21.00
2022-07-25T17:39:31.191Z,20.90
2022-07-25T17:41:58.441Z,20.90
2022-07-25T17:44:25.881Z,21.00
2022-07-25T17:46:53.951Z,20.90
2022-07-25T17:49:22.099Z,20.80
2022-07-25T17:51:49.451Z,20.80
2022-07-25T17:54:16.693Z,20.60
2022-07-25T17:56:45.590Z,20.60
2022-07-25T17:59:13.176Z,20.50
2022-07-25T18:01:40.457Z,20.60
2022-07-25T18:04:08.300Z,20.60
2022-07-25T18:06:35.911Z,20.50
2022-07-25T18:09:03.927Z,20.50
2022-07-25T18:11:31.316Z,20.40
2022-07-25T18:13:59.680Z,20.40
2022-07-25T18:16:27.741Z,20.40
2022-07-25T18:18:55.156Z,20.30
2022-07-25T18:21:23.843Z,20.30
2022-07-25T18:23:52.609Z,20.40
2022-07-25T18:26:22.084Z,20.40
2022-07-25T18:29:08.060Z,20.40
2022-07-25T18:31:40.767Z,20.30
2022-07-25T18:34:08.402Z,20.40
2022-07-25T18:36:36.214Z,20.30
2022-07-25T18:39:16.463Z,20.40
2022-07-25T18:41:56.817Z,20.40
2022-07-25T18:44:27.206Z,20.40
2022-07-25T18:46:54.390Z,20.30
2022-07-25T18:49:22.131Z,20.30
2022-07-25T18:51:50.654Z,20.20
2022-07-25T18:54:17.800Z,20.30
2022-07-25T18:56:45.056Z,20.30
2022-07-25T18:59:12.307Z,20.30
2022-07-25T19:01:39.623Z,20.30
2022-07-25T19:04:07.409Z,20.20
2022-07-25T19:06:35.016Z,20.10
2022-07-25T19:09:02.756Z,20.10
2022-07-25T19:11:30.045Z,20.10
2022-07-25T19:13:57.487Z,20.20
2022-07-25T19:16:24.922Z,20.20
2022-07-25T19:18:53.067Z,20.10
2022-07-25T19:21:20.371Z,20.00
2022-07-25T19:23:50.789Z,19.90
2022-07-25T19:26:20.228Z,19.90
2022-07-25T19:28:49.839Z,19.80
2022-07-25T19:31:17.574Z,19.90
2022-07-25T19:33:46.148Z,19.80
2022-07-25T19:36:14.341Z,19.70
2022-07-25T19:38:41.576Z,19.70
2022-07-25T19:41:09.218Z,19.70
2022-07-25T19:43:36.538Z,19.60
2022-07-25T19:46:03.765Z,19.70
2022-07-25T19:48:31.134Z,19.70
2022-07-25T19:50:58.738Z,19.60
2022-07-25T19:53:28.672Z,19.70
2022-07-25T19:55:56.082Z,19.70
2022-07-25T19:58:23.379Z,19.70
2022-07-25T20:00:50.582Z,19.70
2022-07-25T20:03:23.546Z,19.70
2022-07-25T20:05:54.615Z,19.60
2022-07-25T20:08:21.807Z,19.40
2022-07-25T20:10:48.997Z,19.30
2022-07-25T20:13:18.559Z,19.20
2022-07-25T20:15:45.851Z,19.20
2022-07-25T20:18:18.944Z,19.10
2022-07-25T20:20:47.639Z,19.00
2022-07-25T20:23:14.865Z,19.00
2022-07-25T20:25:42.048Z,19.00
2022-07-25T20:28:09.396Z,19.10
2022-07-25T20:30:36.983Z,19.00
2022-07-25T20:33:08.179Z,19.10
2022-07-25T20:35:38.358Z,19.10
2022-07-25T20:38:09.313Z,19.00
2022-07-25T20:40:37.872Z,19.00
2022-07-25T20:43:09.696Z,18.90
2022-07-25T20:45:37.241Z,18.90
2022-07-25T20:48:05.192Z,18.90
2022-07-25T20:50:33.861Z,18.90
2022-07-25T20:53:01.107Z,18.80
2022-07-25T20:55:28.628Z,18.70
2022-07-25T20:57:56.025Z,18.70
2022-07-25T21:00:25.894Z,18.60
2022-07-25T21:02:53.288Z,18.70
2022-07-25T21:05:21.345Z,18.70
2022-07-25T21:07:48.892Z,18.80
2022-07-25T21:10:16.201Z,18.80
2022-07-25T21:12:45.474Z,18.70
2022-07-25T21:15:13.245Z,18.70
2022-07-25T21:17:41.848Z,18.70
2022-07-25T21:20:11.401Z,18.80
2022-07-25T21:22:39.173Z,18.80
2022-07-25T21:25:08.529Z,18.80
2022-07-25T21:27:36.352Z,18.70
2022-07-25T21:30:06.006Z,18.70
2022-07-25T21:32:33.322Z,18.70
2022-07-25T21:35:01.958Z,18.70
2022-07-25T21:37:29.137Z,18.70
2022-07-25T21:39:56.306Z,18.70
2022-07-25T21:42:23.505Z,18.70
2022-07-25T21:44:53.731Z,18.60
2022-07-25T21:47:21.020Z,18.70
2022-07-25T21:50:06.829Z,18.70
2022-07-25T21:52:35.431Z,18.60
2022-07-25T21:55:04.676Z,18.60
2022-07-25T21:57:32.345Z,18.60
2022-07-25T21:59:59.770Z,18.70
2022-07-25T22:02:29.850Z,18.60
2022-07-25T22:04:57.153Z,18.60
2022-07-25T22:07:25.376Z,18.60
2022-07-25T22:09:52.616Z,18.60
2022-07-25T22:12:19.973Z,18.50
2022-07-25T22:14:47.170Z,18.50
2022-07-25T22:17:14.972Z,18.40
2022-07-25T22:19:42.178Z,18.40
2022-07-25T22:22:09.423Z,18.40
2022-07-25T22:24:37.419Z,18.40
2022-07-25T22:27:05.111Z,18.50
2022-07-25T22:29:32.369Z,18.40
2022-07-25T22:32:00.435Z,18.40
2022-07-25T22:34:27.789Z,18.40
2022-07-25T22:36:54.970Z,18.40
2022-07-25T22:39:22.209Z,18.40
2022-07-25T22:41:49.513Z,18.40
2022-07-25T22:44:16.830Z,18.40
2022-07-25T22:46:44.200Z,18.50
2022-07-25T22:49:11.922Z,18.50
2022-07-25T22:51:39.519Z,18.50
2022-07-25T22:54:06.814Z,18.40
2022-07-25T22:56:37.073Z,18.50
2022-07-25T22:59:04.318Z,18.50
2022-07-25T23:01:31.571Z,18.50
2022-07-25T23:03:58.934Z,18.40
2022-07-25T23:06:26.281Z,18.40
2022-07-25T23:08:53.697Z,18.40
2022-07-25T23:11:21.101Z,18.40
2022-07-25T23:13:48.450Z,18.40
2022-07-25T23:16:15.972Z,18.30
2022-07-25T23:18:43.431Z,18.30
2022-07-25T23:21:11.910Z,18.30
2022-07-25T23:23:39.039Z,18.20
2022-07-25T23:26:06.286Z,18.20
2022-07-25T23:28:34.976Z,18.20
2022-07-25T23:31:02.431Z,18.20
2022-07-25T23:33:29.874Z,18.20
2022-07-25T23:35:57.474Z,18.20
2022-07-25T23:38:25.289Z,18.20
2022-07-25T23:40:54.283Z,18.10
2022-07-25T23:43:55.673Z,18.20
2022-07-25T23:46:08.860Z,18.10
2022-07-25T23:48:36.194Z,18.00
2022-07-25T23:51:03.450Z,18.00
2022-07-25T23:53:34.001Z,17.90
2022-07-25T23:56:01.184Z,18.00
2022-07-25T23:58:28.334Z,17.90
